James Hamilton

Olheiro-Chefe - Hull City
25 Jun 2028
Domingo
Processo

Personalidade

Adaptabilidade (4) Ambição (1) Controvérsia (6) Lealdade (1) Pressão (18) Profissionalismo (11) Espírito Esportivo (12) Temperamento (11)

Perfil

Estilo de Treinamento Democrático
Licença Continental Pro
Determinação 13
Gestão de Pessoas 7
Motivação 10
Disciplina 7
Satisfação no Trabalho
100%
Fadiga
0%
Função Olheiro-Chefe
Salário 68.3K p/s
Contrato 14.03.2030

Desempenho

Comportamento Bom
Eficácia do Treinamento
31%
Desenvolvimento do Jogador
65%
Prevenção de Lesões
65%
Implementação Tática
40%

Eventos Recentes

Participou de uma reunião de recrutamento agora
Recomendou um alvo de transferência agora
Recomendou um alvo de transferência agora
Participou de uma reunião de recrutamento 7d atrás
Recomendou um alvo de transferência 7d atrás
Recomendou um alvo de transferência 7d atrás
Recomendou um alvo de transferência 7d atrás
Recomendou um alvo de transferência 7d atrás

Monitorando agora

128
Jogador Clube Status Habilidade Confiança Observado Última observação Último voto
Pedro Soma San Diego Football Club Ativo 103 / 114 40% 4 12.06.2028 -
Federico Matarán Giana Erminio Ativo 105 / 110 40% 3 12.06.2028 -
Daniel Banjaqui Benfica Ativo 119 / 125 40% 4 31.05.2028 -
Tobiáš Pališčák Zlin Ativo 97 / 111 40% 5 31.05.2028 -
Itumeleng Jali Spezia Ativo 116 / 123 40% 3 30.05.2028 -
Luka Vušković Tottenham Ativo 152 / 158 40% 1 30.05.2028 -
Jan Bürger Northampton Town Ativo 113 / 120 40% 8 29.05.2028 -
Olivier Leroux Mouscron Ativo 101 / 110 40% 8 29.05.2028 -
Jorthy Mokio ADO Den Haag Ativo 130 / 137 40% 4 29.05.2028 -
Bernardo Lima Porto Ativo 108 / 120 40% 8 28.05.2028 -
Josh Nichols Oldham Athletic Ativo 125 / 122 40% 5 28.05.2028 -
Kiani Inge Groningen Ativo 115 / 115 40% 7 26.05.2028 -
Giovanni Leoni Lincoln City Ativo 146 / 141 40% 5 25.05.2028 -
Andrey Ivlev Nizhniy Novgorod Ativo 106 / 117 40% 4 24.05.2028 -
Trey Nyoni Rotherham United Ativo 140 / 149 40% 3 24.05.2028 -
Ronan Kpakio AC Milan Ativo 118 / 131 40% 3 22.05.2028 -
Amine Boukamir Charleroi Ativo 106 / 115 40% 1 20.05.2028 -
Dmitry Pestryakov Krasnodar Ativo 123 / 118 40% 3 19.05.2028 -
Adnan Nainggolan KV Oostende Ativo 99 / 111 40% 3 14.05.2028 -
Tyler Fletcher Rotherham United Ativo 114 / 112 40% 3 11.05.2028 -
Riquelme Thompson-Jones Accrington Stanley Ativo 103 / 119 40% 1 11.05.2028 -
Nathan De Cat SC Freiburg Ativo 126 / 145 40% 3 06.05.2028 -
Khalis Merah Olympique Lyonnais Ativo 135 / 141 40% 3 06.05.2028 -
Honest Ahanor Atalanta Ativo 133 / 141 40% 3 25.04.2028 -
Josh Acheampong Everton Ativo 136 / 140 40% 3 24.04.2028 -
Adam Aznou Everton Ativo 134 / 133 40% 1 23.04.2028 -
Tobías Ramírez River Plate Ativo 133 / 137 40% 2 22.04.2028 -
Augusto Bando Ascoli Ativo 103 / 119 40% 2 17.04.2028 -
Ayden Heaven Portsmouth Ativo 141 / 149 40% 2 15.04.2028 -
Miguel Figueiredo Benfica Ativo 112 / 124 40% 4 14.04.2028 -
Alani Maritimo Ativo 112 / 115 40% 1 08.04.2028 -
Olivier Mambwa Young Boys Ativo 113 / 116 40% 2 19.03.2028 -
Vinícius Lira São Paulo Ativo 121 / 136 40% 2 13.03.2028 -
Matvey Bardachev Zenit Ativo 103 / 112 40% 1 12.03.2028 -
Nejc Viher NK Maribor Ativo 112 / 130 40% 1 12.03.2028 -
Josh King Newcastle United Ativo 144 / 144 40% 3 11.03.2028 -
Ruben Ramos LA Galaxy Ativo 101 / 103 40% 2 24.01.2028 -
Bazoumana Touré Newcastle United Ativo 151 / 155 40% 3 24.01.2028 -
Gorka Gorosabel Real Sociedad Ativo 116 / 122 40% 1 24.01.2028 -
Toni Fruk Talleres Ativo 132 / 133 89% 1 01.01.2028 Aprovar
Mao Hosoya Santos Ativo 134 / 135 67% 1 01.01.2028 Aprovar
Flávio Gonçalves Sporting CP Ativo 126 / 135 40% 4 31.12.2027 -
Julian Hall Real Salt Lake Ativo 96 / 120 40% 1 31.12.2027 -
Senny Mayulu Paris Saint-Germain Ativo 142 / 158 40% 2 30.12.2027 -
Eli Junior Kroupi Bournemouth Ativo 151 / 152 40% 3 29.12.2027 -
Sindre Walle Egeli Udinese Ativo 144 / 145 40% 3 29.12.2027 -
Ryan McAidoo Oldham Athletic Ativo 128 / 131 40% 1 28.12.2027 -
Alex Verón Vélez Ativo 112 / 113 40% 1 28.12.2027 -
Mateus Mané Burnley Ativo 133 / 140 40% 2 27.12.2027 -
Dylan Cabral Arsenal Ativo 92 / 116 40% 1 27.12.2027 -
Matias Siltanen Malmo FF Ativo 116 / 138 40% 2 26.12.2027 -
Joel Medina Independiente Ativo 115 / 125 40% 1 26.12.2027 -
Ibrahim Fullah Charlton Athletic Ativo 128 / 129 40% 2 24.12.2027 -
Luca Williams-Barnett Walsall Ativo 115 / 124 40% 2 24.12.2027 -
Gianluca Prestianni Benfica Ativo 141 / 142 40% 1 22.12.2027 -
Victor Hernandez Santa Fe Ativo 130 / 116 40% 5 21.12.2027 -
Luighi Palmeiras Ativo 116 / 119 40% 1 21.12.2027 -
Ryan Kavuma-McQueen Accrington Stanley Ativo 114 / 134 40% 1 20.12.2027 -
Shea Lacey Crystal Palace Perdido 130 / 138 40% 1 18.12.2027 -
Sebastián Ramírez Aguilas Doradas Ativo 110 / 111 40% 1 16.12.2027 -
Nana Nuhu WAFA Ativo 97 / 93 40% 1 16.12.2027 -
Igor Tyjon Barrow AFC Ativo 105 / 118 40% 1 16.12.2027 -
Gabe Forsyth Colchester United Ativo 103 / 122 40% 2 14.12.2027 -
Amin Nabizada Exeter City Ativo 112 / 118 40% 1 13.12.2027 -
Pedro Baltika Ativo 132 / 138 40% 1 13.12.2027 -
Babis Kostoulas Oxford United Ativo 137 / 148 40% 1 13.12.2027 -
Archie Gray Southampton Ativo 155 / 161 40% 4 12.12.2027 -
Tomás Parmo Independiente Ativo 112 / 137 40% 1 12.12.2027 -
Rio Ngumoha Plymouth Argyle Ativo 144 / 142 40% 1 12.12.2027 -
Tiago Pucciarelli IF Elfsborg Ativo 105 / 106 40% 2 11.12.2027 -
Jonny Shore New York City Ativo 105 / 97 40% 1 10.12.2027 -
Tahiel Peralta Racing Club Ativo 117 / 128 40% 1 10.12.2027 -
Malick Yalcouyé Brighton Ativo 126 / 139 40% 1 30.08.2027 -
Pedro de la Vega Columbus Crew Ativo 133 / 134 95% 1 01.06.2027 Aprovar
Aaron Collins Milton Keynes Dons Ativo 122 / 111 40% 1 31.05.2027 -
Caleb Yirenkyi Coventry City Ativo 134 / 143 40% 6 30.05.2027 -
Zane Albarus Shrewsbury Town Ativo 95 / 104 40% 3 29.05.2027 -
Daniel Dennis Ikorodu City Ativo 91 / 101 40% 3 29.05.2027 -
Gonçalo Oliveira Benfica Ativo 110 / 121 40% 1 29.05.2027 -
Jenson Jones Walsall Ativo 101 / 96 40% 3 28.05.2027 -
Charlie Gray Fleetwood Town Ativo 86 / 89 40% 2 28.05.2027 -
Ezra Mayers West Ham United Ativo 117 / 118 40% 2 26.05.2027 -
Olaniyi Saheed Kwara United Ativo 100 / 94 40% 2 26.05.2027 -
Daniel Idoko Ikorodu City Ativo 86 / 90 40% 2 24.05.2027 -
Pedro Vian Seewald Dolomiti Bellunesi Ativo 90 / 98 40% 1 24.05.2027 -
Maldini Kacurri Grimsby Town Ativo 86 / 90 40% 3 21.05.2027 -
Sascha Britschgi AC Milan Ativo 127 / 123 40% 3 21.05.2027 -
Tommaso Cecotti Carpi Ativo 93 / 97 40% 2 21.05.2027 -
Konta Ismaily Ativo 86 / 94 40% 2 17.05.2027 -
Hosea Michael Remo Stars Ativo 88 / 104 40% 1 15.05.2027 -
Kamaldeen Atiemo Wa All Stars Ativo 98 / 105 40% 2 11.05.2027 -
Enzo Koffi Olympique de Marseille Ativo 117 / 111 40% 1 08.05.2027 -
Lucas Bergvall Tottenham Ativo 140 / 154 40% 3 07.05.2027 -
Kazunari Kita Real Sociedad Ativo 95 / 105 40% 1 06.05.2027 -
Riley Owen Stevenage Ativo 101 / 106 40% 3 04.05.2027 -
Leandro Martins Benfica Ativo 89 / 93 40% 3 01.05.2027 -
Pietro Reggiori Pro Patria Ativo 97 / 100 40% 2 25.04.2027 -
Afriyie Sulemana WAFA Ativo 92 / 102 40% 2 23.04.2027 -
Moncef Zekri Sporting CP Ativo 103 / 108 40% 1 23.04.2027 -
Samuele di Benedetto Twente Ativo 115 / 121 40% 2 18.04.2027 -
Andrea Bertoncini Triestina Ativo 88 / 101 40% 1 18.04.2027 -
Bradley de Jesus Nacional Ativo 93 / 94 40% 2 15.04.2027 -
Ahmed Akinyele Remo Stars Ativo 105 / 98 40% 1 14.04.2027 -
Alessandro Zoboletti Sambenedettese Ativo 93 / 89 40% 1 09.04.2027 -
James Dornelly Peterborough United Ativo 101 / 105 40% 3 06.04.2027 -
Tiago Freitas Benfica Ativo 106 / 121 40% 1 06.04.2027 -
Sampson Dweh Mallorca Ativo 133 / 134 66% 1 01.01.2027 Aprovar
Morgan Guilavogui Real Salt Lake Ativo 117 / 115 40% 1 31.12.2026 -
Wilson Isidor Sunderland Ativo 140 / 143 40% 1 31.12.2026 -
Reece Braithwaite Bloemfontein Celtic Ativo 93 / 113 40% 3 30.12.2026 -
Reed Baker-Whiting Nashville SC Ativo 106 / 105 40% 2 29.12.2026 -
Diogo Monteiro Tondela Ativo 104 / 108 40% 1 28.12.2026 -
Dean Jali Platinum Stars Ativo 94 / 96 40% 1 28.12.2026 -
Simphiwe Selepe Orlando Pirates Ativo 98 / 120 40% 4 20.12.2026 -
Emmanuel Mathias Ikorodu City Ativo 91 / 110 40% 1 16.12.2026 -
Louis Leroux FC Nantes Ativo 121 / 133 40% 1 11.12.2026 -
Philippe Ndinga Philadelphia Union Ativo 103 / 113 40% 2 20.11.2026 -
Pedro Bravo FC Midtjylland Ativo 130 / 116 40% 1 18.11.2026 -
Morrison Agyemang Charlotte Football Club Ativo 109 / 117 40% 1 18.11.2026 -
Mbekezeli Mbokazi Chicago Fire Ativo 126 / 132 40% 1 13.10.2026 -
Joel Ezra Enyimba Ativo 86 / 85 40% 1 13.10.2026 -
Jorrel Hato Chelsea Ativo 151 / 150 40% 1 12.10.2026 -
Reuell Walters Luton Town Ativo 101 / 120 40% 1 08.10.2026 -
Cemran Dansin Orlando Pirates Ativo 115 / 104 40% 2 06.10.2026 -
José Pachuca Puebla Ativo 116 / 114 40% 1 06.10.2026 -
Federico Chiesa Liverpool Ativo 158 / 151 40% 1 31.08.2026 -
Nathan Ordaz DC United Ativo 106 / 104 40% 1 31.08.2026 -
Jacob Bartlett Sporting Kansas City Ativo 96 / 105 40% 1 18.08.2026 -